createdAt,value
2019-01-17T00:00:24.691Z,17.56
2019-01-17T00:03:26.856Z,17.54
2019-01-17T00:06:05.952Z,17.54
2019-01-17T00:08:51.633Z,17.63
2019-01-17T00:11:41.654Z,17.63
2019-01-17T00:14:33.230Z,17.73
2019-01-17T00:17:20.540Z,17.67
2019-01-17T00:20:09.262Z,17.66
2019-01-17T00:22:56.924Z,17.59
2019-01-17T00:25:45.921Z,17.59
2019-01-17T00:28:33.822Z,17.69
2019-01-17T00:31:13.128Z,17.68
2019-01-17T00:34:14.427Z,17.68
2019-01-17T00:37:01.339Z,17.62
2019-01-17T00:39:37.149Z,17.56
2019-01-17T00:42:33.847Z,17.56
2019-01-17T00:45:37.495Z,17.55
2019-01-17T00:51:29.964Z,17.53
2019-01-17T00:54:15.818Z,17.49
2019-01-17T00:57:02.290Z,17.49
2019-01-17T00:59:48.761Z,17.56
2019-01-17T01:02:35.109Z,17.53
2019-01-17T01:05:27.013Z,17.62
2019-01-17T01:08:23.232Z,17.65
2019-01-17T01:11:15.059Z,17.65
2019-01-17T01:13:57.298Z,17.55
2019-01-17T01:16:51.747Z,17.48
2019-01-17T01:19:58.425Z,17.49
2019-01-17T01:22:46.199Z,17.47
2019-01-17T01:25:38.133Z,17.47
2019-01-17T01:28:27.455Z,17.45
2019-01-17T01:31:16.523Z,17.45
2019-01-17T01:34:03.895Z,17.45
2019-01-17T01:36:50.325Z,17.56
2019-01-17T01:39:31.528Z,17.56
2019-01-17T01:42:13.247Z,17.66
2019-01-17T01:44:54.224Z,17.65
2019-01-17T01:47:39.666Z,17.63
2019-01-17T01:50:41.690Z,17.64
2019-01-17T01:53:08.923Z,17.63
2019-01-17T01:55:36.136Z,17.63
2019-01-17T01:58:03.503Z,17.63
2019-01-17T02:00:30.713Z,17.60
2019-01-17T02:02:57.954Z,17.60
2019-01-17T02:05:25.151Z,17.59
2019-01-17T02:07:52.368Z,17.60
2019-01-17T02:10:19.634Z,17.60
2019-01-17T02:12:46.823Z,17.66
2019-01-17T02:15:14.033Z,17.66
2019-01-17T02:17:41.270Z,17.60
2019-01-17T02:20:08.581Z,17.63
2019-01-17T02:22:35.763Z,17.67
2019-01-17T02:25:03.557Z,17.67
2019-01-17T02:27:30.767Z,17.69
2019-01-17T02:29:57.978Z,17.69
2019-01-17T02:32:25.151Z,17.61
2019-01-17T02:34:52.397Z,17.66
2019-01-17T02:37:19.555Z,17.63
2019-01-17T02:39:46.738Z,17.63
2019-01-17T02:42:13.973Z,17.68
2019-01-17T02:44:41.174Z,17.66
2019-01-17T02:47:09.026Z,17.60
2019-01-17T02:49:36.217Z,17.60
2019-01-17T02:52:03.409Z,17.51
2019-01-17T02:54:35.679Z,17.55
2019-01-17T02:56:59.663Z,17.55
2019-01-17T02:59:26.984Z,17.55
2019-01-17T03:01:54.184Z,17.51
2019-01-17T03:04:21.387Z,17.51
2019-01-17T03:06:48.740Z,17.51
2019-01-17T03:09:15.934Z,17.49
2019-01-17T03:11:43.142Z,17.53
2019-01-17T03:14:10.500Z,17.53
2019-01-17T03:16:37.679Z,17.55
2019-01-17T03:19:04.875Z,17.53
2019-01-17T03:21:32.089Z,17.51
2019-01-17T03:23:59.270Z,17.51
2019-01-17T03:26:26.523Z,17.52
2019-01-17T03:28:53.699Z,17.52
2019-01-17T03:31:20.979Z,17.48
2019-01-17T03:33:48.175Z,17.48
2019-01-17T03:36:15.332Z,17.45
2019-01-17T03:38:42.578Z,17.46
2019-01-17T03:41:09.737Z,17.49
2019-01-17T03:43:36.920Z,17.48
2019-01-17T03:46:04.151Z,17.48
2019-01-17T03:48:31.530Z,17.44
2019-01-17T03:50:58.771Z,17.44
2019-01-17T03:53:25.978Z,17.49
2019-01-17T03:55:53.589Z,17.49
2019-01-17T03:58:20.817Z,17.40
2019-01-17T04:00:48.139Z,17.40
2019-01-17T04:03:15.400Z,17.37
2019-01-17T04:05:42.578Z,17.38
2019-01-17T04:08:09.779Z,17.43
2019-01-17T04:10:36.982Z,17.50
2019-01-17T04:13:04.307Z,17.50
2019-01-17T04:15:31.584Z,17.50
2019-01-17T04:17:58.773Z,17.51
2019-01-17T04:20:26.117Z,17.51
2019-01-17T04:22:53.287Z,17.51
2019-01-17T04:25:20.490Z,17.51
2019-01-17T04:27:47.709Z,17.50
2019-01-17T04:30:16.859Z,17.45
2019-01-17T04:32:44.017Z,17.45
2019-01-17T04:35:11.279Z,17.48
2019-01-17T04:37:38.472Z,17.48
2019-01-17T04:40:06.552Z,17.48
2019-01-17T04:42:33.789Z,17.53
2019-01-17T04:45:01.007Z,17.55
2019-01-17T04:47:28.226Z,17.51
2019-01-17T04:49:55.441Z,17.51
2019-01-17T04:52:22.568Z,17.56
2019-01-17T04:54:49.794Z,17.52
2019-01-17T04:57:17.014Z,17.59
2019-01-17T04:59:44.219Z,17.60
2019-01-17T05:02:11.463Z,17.60
2019-01-17T05:04:38.868Z,17.57
2019-01-17T05:07:06.124Z,17.65
2019-01-17T05:09:33.325Z,17.67
2019-01-17T05:12:00.522Z,17.66
2019-01-17T05:14:27.727Z,17.66
2019-01-17T05:16:54.922Z,17.62
2019-01-17T05:19:22.128Z,17.62
2019-01-17T05:21:49.336Z,17.62
2019-01-17T05:24:16.554Z,17.68
2019-01-17T05:26:43.740Z,17.67
2019-01-17T05:29:11.052Z,17.67
2019-01-17T05:31:38.274Z,17.73
2019-01-17T05:34:05.458Z,17.75
2019-01-17T05:36:32.679Z,17.74
2019-01-17T05:38:59.848Z,17.74
2019-01-17T05:41:27.099Z,17.76
2019-01-17T05:43:54.360Z,17.75
2019-01-17T05:46:21.609Z,17.69
2019-01-17T05:48:48.957Z,17.69
2019-01-17T05:51:16.120Z,17.70
2019-01-17T05:53:43.364Z,17.73
2019-01-17T05:56:10.589Z,17.70
2019-01-17T05:58:37.917Z,17.66
2019-01-17T06:01:05.098Z,17.66
2019-01-17T06:03:32.406Z,17.67
2019-01-17T06:05:59.715Z,17.72
2019-01-17T06:08:26.985Z,17.72
2019-01-17T06:10:54.185Z,17.61
2019-01-17T06:13:21.403Z,17.61
2019-01-17T06:15:48.889Z,17.63
2019-01-17T06:18:16.089Z,17.63
2019-01-17T06:20:43.291Z,17.65
2019-01-17T06:23:10.505Z,17.61
2019-01-17T06:25:37.678Z,17.59
2019-01-17T06:28:04.920Z,17.59
2019-01-17T06:30:32.107Z,17.49
2019-01-17T06:32:59.345Z,17.52
2019-01-17T06:35:26.552Z,17.47
2019-01-17T06:37:53.737Z,17.52
2019-01-17T06:40:24.095Z,17.52
2019-01-17T06:42:51.311Z,17.41
2019-01-17T06:45:18.507Z,17.41
2019-01-17T06:47:45.949Z,17.45
2019-01-17T06:50:13.263Z,17.51
2019-01-17T06:52:41.186Z,17.56
2019-01-17T06:55:08.569Z,17.56
2019-01-17T06:57:35.971Z,17.51
2019-01-17T07:00:03.874Z,17.53
2019-01-17T07:02:31.076Z,17.53
2019-01-17T07:04:58.290Z,17.54
2019-01-17T07:07:25.547Z,17.53
2019-01-17T07:09:55.220Z,17.48
2019-01-17T07:12:22.584Z,17.48
2019-01-17T07:14:49.824Z,17.43
2019-01-17T07:17:17.171Z,17.51
2019-01-17T07:19:44.386Z,17.46
2019-01-17T07:22:11.591Z,17.46
2019-01-17T07:24:38.937Z,17.45
2019-01-17T07:27:06.112Z,17.41
2019-01-17T07:29:33.344Z,17.44
2019-01-17T07:32:00.587Z,17.40
2019-01-17T07:34:27.795Z,17.40
2019-01-17T07:36:55.461Z,17.35
2019-01-17T07:39:23.584Z,17.35
2019-01-17T07:41:50.767Z,17.33
2019-01-17T07:44:18.012Z,17.36
2019-01-17T07:46:45.319Z,17.32
2019-01-17T07:49:12.520Z,17.39
2019-01-17T07:51:39.815Z,17.41
2019-01-17T07:54:07.018Z,17.41
2019-01-17T07:56:34.354Z,17.41
2019-01-17T07:59:01.507Z,17.43
2019-01-17T08:01:28.704Z,17.46
2019-01-17T08:03:55.926Z,17.48
2019-01-17T08:06:23.249Z,17.43
2019-01-17T08:08:50.484Z,17.49
2019-01-17T08:11:17.700Z,17.46
2019-01-17T08:13:44.908Z,17.43
2019-01-17T08:16:12.195Z,17.46
2019-01-17T08:18:39.432Z,17.46
2019-01-17T08:21:06.680Z,17.46
2019-01-17T08:23:34.765Z,17.47
2019-01-17T08:26:02.709Z,17.45
2019-01-17T08:28:29.895Z,17.41
2019-01-17T08:30:57.109Z,17.43
2019-01-17T08:33:24.414Z,17.49
2019-01-17T08:35:51.655Z,17.49
2019-01-17T08:38:18.851Z,17.46
2019-01-17T08:40:46.063Z,17.52
2019-01-17T08:43:13.337Z,17.49
2019-01-17T08:45:40.584Z,17.50
2019-01-17T08:48:07.811Z,17.50
2019-01-17T08:50:35.037Z,17.47
2019-01-17T08:53:02.366Z,17.53
2019-01-17T08:55:29.587Z,17.49
2019-01-17T08:57:56.835Z,17.55
2019-01-17T09:00:24.378Z,17.55
2019-01-17T09:02:51.741Z,17.57
2019-01-17T09:05:18.900Z,17.53
2019-01-17T09:07:46.250Z,17.49
2019-01-17T09:10:16.730Z,17.49
2019-01-17T09:12:44.873Z,17.47
2019-01-17T09:15:13.063Z,17.53
2019-01-17T09:17:40.274Z,17.54
2019-01-17T09:20:09.993Z,17.54
2019-01-17T09:22:37.194Z,17.59
2019-01-17T09:25:05.419Z,17.60
2019-01-17T09:27:32.626Z,17.54
2019-01-17T09:29:59.854Z,17.54
2019-01-17T09:32:27.037Z,17.60
2019-01-17T09:34:54.225Z,17.60
2019-01-17T09:37:21.415Z,17.61
2019-01-17T09:39:48.625Z,17.58
2019-01-17T09:42:16.237Z,17.60
2019-01-17T09:44:43.688Z,17.65
2019-01-17T09:47:10.967Z,17.65
2019-01-17T09:49:38.187Z,17.68
2019-01-17T09:52:05.377Z,17.71
2019-01-17T09:54:32.567Z,17.71
2019-01-17T09:56:59.761Z,17.77
2019-01-17T09:59:26.985Z,17.79
2019-01-17T10:01:54.268Z,17.76
2019-01-17T10:04:22.114Z,17.72
2019-01-17T10:06:50.664Z,17.75
2019-01-17T10:09:17.876Z,17.77
2019-01-17T10:11:45.083Z,17.77
2019-01-17T10:14:12.310Z,17.77
2019-01-17T10:17:03.987Z,17.77
2019-01-17T10:20:08.919Z,17.77
2019-01-17T10:23:29.858Z,17.70
2019-01-17T10:26:42.029Z,17.70
2019-01-17T10:29:39.068Z,17.72
2019-01-17T10:32:44.680Z,17.74
2019-01-17T10:35:43.109Z,17.75
2019-01-17T10:39:10.306Z,17.72
2019-01-17T10:42:04.777Z,17.80
2019-01-17T10:45:32.102Z,17.77
2019-01-17T10:48:49.387Z,17.77
2019-01-17T10:51:36.854Z,17.69
2019-01-17T10:54:37.944Z,17.61
2019-01-17T10:57:29.729Z,17.61
2019-01-17T11:00:28.693Z,17.65
2019-01-17T11:03:44.217Z,17.57
2019-01-17T11:06:41.325Z,17.60
2019-01-17T11:09:45.877Z,17.63
2019-01-17T11:12:39.976Z,17.62
2019-01-17T11:15:33.172Z,17.57
2019-01-17T11:18:34.490Z,17.62
2019-01-17T11:21:43.468Z,17.63
2019-01-17T11:24:44.974Z,17.70
2019-01-17T11:27:48.960Z,17.73
2019-01-17T11:31:04.007Z,17.64
2019-01-17T11:34:02.650Z,17.64
2019-01-17T11:37:13.650Z,17.70
2019-01-17T11:40:12.993Z,17.74
2019-01-17T11:43:16.370Z,17.78
2019-01-17T11:45:55.517Z,17.79
2019-01-17T11:49:06.701Z,17.77
2019-01-17T11:52:31.233Z,17.76
2019-01-17T11:55:55.146Z,17.76
2019-01-17T11:59:06.194Z,17.76
2019-01-17T12:02:11.778Z,17.66
2019-01-17T12:04:37.988Z,17.72
2019-01-17T12:07:07.630Z,17.74
2019-01-17T12:09:35.634Z,17.74
2019-01-17T12:12:04.176Z,17.74
2019-01-17T12:14:32.511Z,17.74
2019-01-17T12:16:59.841Z,17.72
2019-01-17T12:19:27.253Z,17.77
2019-01-17T12:21:54.627Z,17.76
2019-01-17T12:24:22.046Z,17.76
2019-01-17T12:26:49.593Z,17.73
2019-01-17T12:29:16.830Z,17.71
2019-01-17T12:31:44.039Z,17.62
2019-01-17T12:34:11.357Z,17.62
2019-01-17T12:36:38.615Z,17.68
2019-01-17T12:39:08.068Z,17.66
2019-01-17T12:41:35.374Z,17.66
2019-01-17T12:44:02.935Z,17.66
2019-01-17T12:46:30.172Z,17.63
2019-01-17T12:48:57.661Z,17.61
2019-01-17T12:51:24.990Z,17.64
2019-01-17T12:53:52.240Z,17.64
2019-01-17T12:56:19.819Z,17.62
2019-01-17T12:58:47.068Z,17.61
2019-01-17T13:01:14.281Z,17.61
2019-01-17T13:03:41.490Z,17.62
2019-01-17T13:06:08.754Z,17.60
2019-01-17T13:08:35.925Z,17.58
2019-01-17T13:11:03.425Z,17.62
2019-01-17T13:13:30.642Z,17.62
2019-01-17T13:15:57.810Z,17.62
2019-01-17T13:18:25.048Z,17.63
2019-01-17T13:20:52.221Z,17.64
2019-01-17T13:23:19.394Z,17.62
2019-01-17T13:25:46.626Z,17.62
2019-01-17T13:28:13.782Z,17.66
2019-01-17T13:30:41.042Z,17.67
2019-01-17T13:33:08.948Z,17.68
2019-01-17T13:35:36.170Z,17.75
2019-01-17T13:38:03.462Z,17.75
2019-01-17T13:40:30.695Z,17.75
2019-01-17T13:42:57.876Z,17.75
2019-01-17T13:45:25.273Z,17.72
2019-01-17T13:47:52.469Z,17.72
2019-01-17T13:50:19.776Z,17.75
2019-01-17T13:52:47.041Z,17.75
2019-01-17T13:55:14.714Z,17.78
2019-01-17T13:57:42.024Z,17.80
2019-01-17T14:00:17.694Z,17.82
2019-01-17T14:02:44.947Z,17.79
2019-01-17T14:05:12.407Z,17.77
2019-01-17T14:07:39.625Z,17.74
2019-01-17T14:10:07.351Z,17.74
2019-01-17T14:12:34.523Z,17.74
2019-01-17T14:15:01.731Z,17.75
2019-01-17T14:17:29.260Z,17.71
2019-01-17T14:19:56.574Z,17.73
2019-01-17T14:22:23.765Z,17.76
2019-01-17T14:24:50.996Z,17.72
2019-01-17T14:27:18.173Z,17.74
2019-01-17T14:29:45.418Z,17.72
2019-01-17T14:32:12.619Z,17.72
2019-01-17T14:34:39.803Z,17.72
2019-01-17T14:37:07.038Z,17.75
2019-01-17T14:39:34.258Z,17.77
2019-01-17T14:42:01.502Z,17.76
2019-01-17T14:44:28.700Z,17.74
2019-01-17T14:46:56.088Z,17.74
2019-01-17T14:49:23.255Z,17.74
2019-01-17T14:51:50.426Z,17.74
2019-01-17T14:54:17.633Z,17.73
2019-01-17T14:56:44.819Z,17.70
2019-01-17T14:59:12.013Z,17.66
2019-01-17T15:01:39.560Z,17.62
2019-01-17T15:04:06.799Z,17.63
2019-01-17T15:06:34.011Z,17.61
2019-01-17T15:09:01.238Z,17.62
2019-01-17T15:11:28.411Z,17.61
2019-01-17T15:13:55.619Z,17.60
2019-01-17T15:16:22.824Z,17.57
2019-01-17T15:18:50.005Z,17.58
2019-01-17T15:21:17.207Z,17.57
2019-01-17T15:23:44.397Z,17.54
2019-01-17T15:26:11.597Z,17.56
2019-01-17T15:28:38.805Z,17.55
2019-01-17T15:31:06.042Z,17.56
2019-01-17T15:33:33.216Z,17.55
2019-01-17T15:36:00.407Z,17.54
2019-01-17T15:38:27.652Z,17.51
2019-01-17T15:40:54.848Z,17.51
2019-01-17T15:43:22.059Z,17.50
2019-01-17T15:45:49.333Z,17.49
2019-01-17T15:48:16.533Z,17.44
2019-01-17T15:50:43.738Z,17.49
2019-01-17T15:53:10.962Z,17.49
2019-01-17T15:55:38.180Z,17.47
2019-01-17T15:58:05.513Z,17.48
2019-01-17T16:00:32.818Z,17.45
2019-01-17T16:03:00.078Z,17.49
2019-01-17T16:05:27.257Z,17.49
2019-01-17T16:07:54.616Z,17.50
2019-01-17T16:10:21.871Z,17.48
2019-01-17T16:12:49.040Z,17.48
2019-01-17T16:15:21.273Z,17.51
2019-01-17T16:17:48.616Z,17.48
2019-01-17T16:20:15.836Z,17.46
2019-01-17T16:22:43.026Z,17.46
2019-01-17T16:25:11.312Z,17.45
2019-01-17T16:27:41.784Z,17.44
2019-01-17T16:30:11.799Z,17.43
2019-01-17T16:32:39.005Z,17.39
2019-01-17T16:35:06.213Z,17.39
2019-01-17T16:37:33.440Z,17.44
2019-01-17T16:40:00.639Z,17.44
2019-01-17T16:42:27.852Z,17.42
2019-01-17T16:44:55.079Z,17.35
2019-01-17T16:47:22.313Z,17.38
2019-01-17T16:49:49.528Z,17.30
2019-01-17T16:52:16.772Z,17.31
2019-01-17T16:54:43.968Z,17.31
2019-01-17T16:57:11.425Z,17.31
2019-01-17T16:59:38.573Z,17.31
2019-01-17T17:02:05.766Z,17.28
2019-01-17T17:04:32.989Z,17.22
2019-01-17T17:07:00.261Z,17.12
2019-01-17T17:09:27.452Z,17.12
2019-01-17T17:11:54.698Z,17.13
2019-01-17T17:14:21.891Z,17.10
2019-01-17T17:16:49.047Z,17.10
2019-01-17T17:19:16.292Z,17.12
2019-01-17T17:21:43.494Z,17.09
2019-01-17T17:24:10.758Z,17.09
2019-01-17T17:26:37.950Z,17.06
2019-01-17T17:29:05.182Z,17.06
2019-01-17T17:31:32.399Z,17.09
2019-01-17T17:33:59.597Z,17.05
2019-01-17T17:36:26.811Z,17.04
2019-01-17T17:38:53.982Z,17.04
2019-01-17T17:41:21.189Z,17.03
2019-01-17T17:43:48.378Z,17.05
2019-01-17T17:46:15.880Z,17.04
2019-01-17T17:48:43.263Z,17.04
2019-01-17T17:51:10.454Z,17.07
2019-01-17T17:53:38.220Z,17.11
2019-01-17T17:56:05.958Z,17.11
2019-01-17T17:58:33.194Z,17.09
2019-01-17T18:01:12.929Z,17.08
2019-01-17T18:03:40.148Z,17.07
2019-01-17T18:06:07.471Z,17.05
2019-01-17T18:08:34.711Z,17.04
2019-01-17T18:11:02.000Z,17.06
2019-01-17T18:13:29.172Z,17.06
2019-01-17T18:15:56.482Z,17.08
2019-01-17T18:18:23.672Z,17.13
2019-01-17T18:20:51.013Z,17.16
2019-01-17T18:23:18.207Z,17.14
2019-01-17T18:25:45.562Z,17.14
2019-01-17T18:28:12.816Z,17.17
2019-01-17T18:30:40.109Z,17.17
2019-01-17T18:33:07.779Z,17.17
2019-01-17T18:35:34.997Z,17.17
2019-01-17T18:38:02.371Z,17.18
2019-01-17T18:40:29.705Z,17.23
2019-01-17T18:43:00.305Z,17.22
2019-01-17T18:45:27.600Z,17.26
2019-01-17T18:47:54.844Z,17.28
2019-01-17T18:50:24.499Z,17.28
2019-01-17T18:52:51.717Z,17.24
2019-01-17T18:55:18.903Z,17.23
2019-01-17T18:57:46.107Z,17.23
2019-01-17T19:00:20.885Z,17.27
2019-01-17T19:02:48.314Z,17.28
2019-01-17T19:05:17.296Z,17.31
2019-01-17T19:07:44.553Z,17.30
2019-01-17T19:10:11.866Z,17.29
2019-01-17T19:12:39.073Z,17.30
2019-01-17T19:15:08.391Z,17.27
2019-01-17T19:17:35.593Z,17.25
2019-01-17T19:20:03.726Z,17.25
2019-01-17T19:22:30.934Z,17.25
2019-01-17T19:24:58.318Z,17.34
2019-01-17T19:27:25.539Z,17.34
2019-01-17T19:29:52.831Z,17.34
2019-01-17T19:32:20.142Z,17.36
2019-01-17T19:34:47.322Z,17.34
2019-01-17T19:37:22.024Z,17.34
2019-01-17T19:39:49.117Z,17.38
2019-01-17T19:42:16.497Z,17.38
2019-01-17T19:44:43.793Z,17.40
2019-01-17T19:47:11.372Z,17.38
2019-01-17T19:49:40.640Z,17.39
2019-01-17T19:52:09.593Z,17.45
2019-01-17T19:54:41.646Z,17.47
2019-01-17T19:57:27.696Z,17.49
2019-01-17T19:59:54.858Z,17.50
2019-01-17T20:02:22.079Z,17.50
2019-01-17T20:04:49.307Z,17.46
2019-01-17T20:07:16.526Z,17.50
2019-01-17T20:09:43.743Z,17.52
2019-01-17T20:12:10.938Z,17.52
2019-01-17T20:14:38.112Z,17.51
2019-01-17T20:17:05.425Z,17.55
2019-01-17T20:19:32.647Z,17.51
2019-01-17T20:21:59.808Z,17.51
2019-01-17T20:24:27.039Z,17.46
2019-01-17T20:26:54.244Z,17.36
2019-01-17T20:29:21.476Z,17.35
2019-01-17T20:31:48.697Z,17.30
2019-01-17T20:34:15.895Z,17.30
2019-01-17T20:36:50.091Z,17.35
2019-01-17T20:39:32.839Z,17.35
2019-01-17T20:42:00.036Z,17.24
2019-01-17T20:44:27.220Z,17.27
2019-01-17T20:46:54.518Z,17.26
2019-01-17T20:49:24.776Z,17.26
2019-01-17T20:51:52.029Z,17.22
2019-01-17T20:54:20.095Z,17.24
2019-01-17T20:56:48.044Z,17.22
2019-01-17T20:59:15.308Z,17.22
2019-01-17T21:01:52.632Z,17.22
2019-01-17T21:04:20.290Z,17.23
2019-01-17T21:06:47.570Z,17.18
2019-01-17T21:09:15.010Z,17.18
2019-01-17T21:11:42.409Z,17.21
2019-01-17T21:14:09.836Z,17.16
2019-01-17T21:16:38.745Z,17.24
2019-01-17T21:19:06.066Z,17.24
2019-01-17T21:21:34.168Z,17.22
2019-01-17T21:24:01.346Z,17.22
2019-01-17T21:26:28.633Z,17.24
2019-01-17T21:28:56.146Z,17.20
2019-01-17T21:31:23.431Z,17.23
2019-01-17T21:33:51.838Z,17.20
2019-01-17T21:36:19.370Z,17.19
2019-01-17T21:38:46.585Z,17.19
2019-01-17T21:41:14.022Z,17.16
2019-01-17T21:43:44.632Z,17.17
2019-01-17T21:46:11.949Z,17.18
2019-01-17T21:48:39.432Z,17.17
2019-01-17T21:51:08.200Z,17.17
2019-01-17T21:53:37.359Z,17.21
2019-01-17T21:56:06.230Z,17.18
2019-01-17T21:58:33.701Z,17.18
2019-01-17T22:01:01.999Z,17.22
2019-01-17T22:03:29.664Z,17.22
2019-01-17T22:05:58.208Z,17.16
2019-01-17T22:08:25.439Z,17.12
2019-01-17T22:10:53.188Z,17.12
2019-01-17T22:13:20.667Z,17.15
2019-01-17T22:15:48.209Z,17.16
2019-01-17T22:18:16.014Z,17.15
2019-01-17T22:20:45.010Z,17.10
2019-01-17T22:23:14.105Z,17.15
2019-01-17T22:25:53.892Z,17.11
2019-01-17T22:28:26.083Z,17.11
2019-01-17T22:30:55.218Z,17.11
2019-01-17T22:33:25.332Z,17.07
2019-01-17T22:35:53.027Z,17.06
2019-01-17T22:38:21.906Z,17.04
2019-01-17T22:40:50.239Z,17.04
2019-01-17T22:43:20.417Z,17.05
2019-01-17T22:45:49.695Z,17.08
2019-01-17T22:48:17.625Z,16.97
2019-01-17T22:50:45.326Z,16.97
2019-01-17T22:53:13.896Z,17.04
2019-01-17T22:55:41.175Z,17.04
2019-01-17T22:58:08.780Z,17.02
2019-01-17T23:00:58.760Z,17.04
2019-01-17T23:03:32.950Z,17.04
2019-01-17T23:06:00.529Z,17.01
2019-01-17T23:08:28.114Z,17.03
2019-01-17T23:10:55.748Z,16.99
2019-01-17T23:13:23.305Z,17.00
2019-01-17T23:15:51.090Z,17.00
2019-01-17T23:18:19.606Z,16.98
2019-01-17T23:20:46.802Z,16.92
2019-01-17T23:23:14.942Z,16.92
2019-01-17T23:25:42.323Z,16.93
2019-01-17T23:28:12.496Z,16.95
2019-01-17T23:30:46.028Z,16.95
2019-01-17T23:33:13.245Z,16.94
2019-01-17T23:35:40.527Z,16.93
2019-01-17T23:38:07.720Z,16.99
2019-01-17T23:40:34.921Z,17.02
2019-01-17T23:43:02.184Z,17.01
2019-01-17T23:45:29.606Z,17.01
2019-01-17T23:47:56.775Z,17.03
2019-01-17T23:50:23.961Z,17.03
2019-01-17T23:52:51.195Z,16.97
2019-01-17T23:55:18.419Z,16.95
2019-01-17T23:57:45.637Z,16.98
